sensor_id;sensor_type;location;lat;lon;timestamp;temperature;humidity
68746;SHT31;66104;45.456;11.064;2023-05-10T00:02:02;17.69;59.99
68746;SHT31;66104;45.456;11.064;2023-05-10T00:04:39;17.64;60.25
68746;SHT31;66104;45.456;11.064;2023-05-10T00:07:17;17.60;60.57
68746;SHT31;66104;45.456;11.064;2023-05-10T00:09:55;17.54;60.42
68746;SHT31;66104;45.456;11.064;2023-05-10T00:12:33;17.50;59.68
68746;SHT31;66104;45.456;11.064;2023-05-10T00:15:11;17.46;59.20
68746;SHT31;66104;45.456;11.064;2023-05-10T00:17:49;17.42;58.38
68746;SHT31;66104;45.456;11.064;2023-05-10T00:20:27;17.39;57.20
68746;SHT31;66104;45.456;11.064;2023-05-10T00:23:04;17.37;57.32
68746;SHT31;66104;45.456;11.064;2023-05-10T00:25:42;17.35;56.75
68746;SHT31;66104;45.456;11.064;2023-05-10T00:28:19;17.34;56.83
68746;SHT31;66104;45.456;11.064;2023-05-10T00:30:58;17.31;56.23
68746;SHT31;66104;45.456;11.064;2023-05-10T00:33:37;17.28;55.85
68746;SHT31;66104;45.456;11.064;2023-05-10T00:36:14;17.27;55.93
68746;SHT31;66104;45.456;11.064;2023-05-10T00:38:52;17.25;55.29
68746;SHT31;66104;45.456;11.064;2023-05-10T00:41:28;17.20;55.05
68746;SHT31;66104;45.456;11.064;2023-05-10T00:44:06;17.12;55.20
68746;SHT31;66104;45.456;11.064;2023-05-10T00:46:43;17.09;55.39
68746;SHT31;66104;45.456;11.064;2023-05-10T00:49:21;17.05;55.80
68746;SHT31;66104;45.456;11.064;2023-05-10T00:52:00;17.01;55.92
68746;SHT31;66104;45.456;11.064;2023-05-10T00:54:37;16.99;55.82
68746;SHT31;66104;45.456;11.064;2023-05-10T00:57:15;16.91;55.46
68746;SHT31;66104;45.456;11.064;2023-05-10T00:59:52;16.86;55.12
68746;SHT31;66104;45.456;11.064;2023-05-10T01:02:31;16.82;55.47
68746;SHT31;66104;45.456;11.064;2023-05-10T01:05:11;16.78;55.76
68746;SHT31;66104;45.456;11.064;2023-05-10T01:07:48;16.74;55.48
68746;SHT31;66104;45.456;11.064;2023-05-10T01:10:25;16.68;55.79
68746;SHT31;66104;45.456;11.064;2023-05-10T01:13:03;16.63;55.93
68746;SHT31;66104;45.456;11.064;2023-05-10T01:15:41;16.59;55.88
68746;SHT31;66104;45.456;11.064;2023-05-10T01:18:20;16.54;55.81
68746;SHT31;66104;45.456;11.064;2023-05-10T01:21:01;16.50;55.88
68746;SHT31;66104;45.456;11.064;2023-05-10T01:24:01;16.47;54.99
68746;SHT31;66104;45.456;11.064;2023-05-10T01:27:31;16.46;55.69
68746;SHT31;66104;45.456;11.064;2023-05-10T01:30:54;16.43;55.62
68746;SHT31;66104;45.456;11.064;2023-05-10T01:33:57;16.41;55.77
68746;SHT31;66104;45.456;11.064;2023-05-10T01:36:45;16.38;55.90
68746;SHT31;66104;45.456;11.064;2023-05-10T01:39:36;16.33;55.95
68746;SHT31;66104;45.456;11.064;2023-05-10T01:42:25;16.29;56.31
68746;SHT31;66104;45.456;11.064;2023-05-10T01:45:11;16.25;56.51
68746;SHT31;66104;45.456;11.064;2023-05-10T01:48:02;16.23;57.13
68746;SHT31;66104;45.456;11.064;2023-05-10T01:50:44;16.19;57.73
68746;SHT31;66104;45.456;11.064;2023-05-10T01:53:22;16.13;57.80
68746;SHT31;66104;45.456;11.064;2023-05-10T01:55:59;16.08;58.16
68746;SHT31;66104;45.456;11.064;2023-05-10T01:58:40;16.05;58.77
68746;SHT31;66104;45.456;11.064;2023-05-10T02:01:23;16.00;59.12
68746;SHT31;66104;45.456;11.064;2023-05-10T02:04:01;15.97;59.21
68746;SHT31;66104;45.456;11.064;2023-05-10T02:06:40;15.97;59.21
68746;SHT31;66104;45.456;11.064;2023-05-10T02:09:20;15.95;59.49
68746;SHT31;66104;45.456;11.064;2023-05-10T02:12:01;15.91;59.79
68746;SHT31;66104;45.456;11.064;2023-05-10T02:14:41;15.87;60.28
68746;SHT31;66104;45.456;11.064;2023-05-10T02:17:20;15.86;60.49
68746;SHT31;66104;45.456;11.064;2023-05-10T02:20:00;15.85;60.46
68746;SHT31;66104;45.456;11.064;2023-05-10T02:22:41;15.82;60.50
68746;SHT31;66104;45.456;11.064;2023-05-10T02:25:21;15.79;60.67
68746;SHT31;66104;45.456;11.064;2023-05-10T02:28:02;15.76;61.07
68746;SHT31;66104;45.456;11.064;2023-05-10T02:30:42;15.74;61.25
68746;SHT31;66104;45.456;11.064;2023-05-10T02:33:22;15.71;61.61
68746;SHT31;66104;45.456;11.064;2023-05-10T02:36:03;15.70;61.84
68746;SHT31;66104;45.456;11.064;2023-05-10T02:38:45;15.73;61.91
68746;SHT31;66104;45.456;11.064;2023-05-10T02:41:25;15.73;61.90
68746;SHT31;66104;45.456;11.064;2023-05-10T02:44:04;15.69;62.19
68746;SHT31;66104;45.456;11.064;2023-05-10T02:46:44;15.65;62.69
68746;SHT31;66104;45.456;11.064;2023-05-10T02:49:22;15.62;62.14
68746;SHT31;66104;45.456;11.064;2023-05-10T02:52:00;15.62;62.61
68746;SHT31;66104;45.456;11.064;2023-05-10T02:54:39;15.62;62.78
68746;SHT31;66104;45.456;11.064;2023-05-10T02:57:22;15.58;63.14
68746;SHT31;66104;45.456;11.064;2023-05-10T03:00:05;15.54;62.82
68746;SHT31;66104;45.456;11.064;2023-05-10T03:02:47;15.58;63.08
68746;SHT31;66104;45.456;11.064;2023-05-10T03:05:26;15.62;63.57
68746;SHT31;66104;45.456;11.064;2023-05-10T03:08:05;15.61;63.68
68746;SHT31;66104;45.456;11.064;2023-05-10T03:10:57;15.62;64.18
68746;SHT31;66104;45.456;11.064;2023-05-10T03:13:56;15.57;64.47
68746;SHT31;66104;45.456;11.064;2023-05-10T03:16:52;15.54;65.03
68746;SHT31;66104;45.456;11.064;2023-05-10T03:19:39;15.44;64.78
68746;SHT31;66104;45.456;11.064;2023-05-10T03:22:26;15.36;65.60
68746;SHT31;66104;45.456;11.064;2023-05-10T03:25:10;15.31;66.01
68746;SHT31;66104;45.456;11.064;2023-05-10T03:27:50;15.26;65.62
68746;SHT31;66104;45.456;11.064;2023-05-10T03:30:28;15.18;65.94
68746;SHT31;66104;45.456;11.064;2023-05-10T03:33:06;15.14;65.97
68746;SHT31;66104;45.456;11.064;2023-05-10T03:35:46;15.11;66.44
68746;SHT31;66104;45.456;11.064;2023-05-10T03:38:25;15.09;66.98
68746;SHT31;66104;45.456;11.064;2023-05-10T03:41:03;15.07;67.46
68746;SHT31;66104;45.456;11.064;2023-05-10T03:43:41;15.02;67.41
68746;SHT31;66104;45.456;11.064;2023-05-10T03:46:19;14.99;67.95
68746;SHT31;66104;45.456;11.064;2023-05-10T03:48:57;14.92;67.50
68746;SHT31;66104;45.456;11.064;2023-05-10T03:51:37;14.87;68.00
68746;SHT31;66104;45.456;11.064;2023-05-10T03:54:14;14.83;68.30
68746;SHT31;66104;45.456;11.064;2023-05-10T03:56:52;14.81;68.82
68746;SHT31;66104;45.456;11.064;2023-05-10T03:59:32;14.80;68.33
68746;SHT31;66104;45.456;11.064;2023-05-10T04:02:09;14.80;67.95
68746;SHT31;66104;45.456;11.064;2023-05-10T04:04:46;14.82;67.57
68746;SHT31;66104;45.456;11.064;2023-05-10T04:07:23;14.84;67.71
68746;SHT31;66104;45.456;11.064;2023-05-10T04:10:01;14.82;67.30
68746;SHT31;66104;45.456;11.064;2023-05-10T04:12:40;14.82;67.54
68746;SHT31;66104;45.456;11.064;2023-05-10T04:15:18;14.82;67.63
68746;SHT31;66104;45.456;11.064;2023-05-10T04:17:57;14.76;67.28
68746;SHT31;66104;45.456;11.064;2023-05-10T04:20:36;14.72;67.33
68746;SHT31;66104;45.456;11.064;2023-05-10T04:23:14;14.73;68.04
68746;SHT31;66104;45.456;11.064;2023-05-10T04:25:53;14.78;68.23
68746;SHT31;66104;45.456;11.064;2023-05-10T04:28:36;14.77;67.72
68746;SHT31;66104;45.456;11.064;2023-05-10T04:31:13;14.75;68.14
68746;SHT31;66104;45.456;11.064;2023-05-10T04:33:51;14.73;67.73
68746;SHT31;66104;45.456;11.064;2023-05-10T04:36:28;14.69;67.71
68746;SHT31;66104;45.456;11.064;2023-05-10T04:39:05;14.66;67.76
68746;SHT31;66104;45.456;11.064;2023-05-10T04:41:43;14.65;67.85
68746;SHT31;66104;45.456;11.064;2023-05-10T04:44:21;14.68;68.02
68746;SHT31;66104;45.456;11.064;2023-05-10T04:46:58;14.70;67.44
68746;SHT31;66104;45.456;11.064;2023-05-10T04:49:37;14.68;67.43
68746;SHT31;66104;45.456;11.064;2023-05-10T04:52:15;14.62;67.82
68746;SHT31;66104;45.456;11.064;2023-05-10T04:54:53;14.59;67.50
68746;SHT31;66104;45.456;11.064;2023-05-10T04:57:31;14.57;67.97
68746;SHT31;66104;45.456;11.064;2023-05-10T05:00:10;14.55;68.05
68746;SHT31;66104;45.456;11.064;2023-05-10T05:02:52;14.52;68.11
68746;SHT31;66104;45.456;11.064;2023-05-10T05:05:29;14.45;68.16
68746;SHT31;66104;45.456;11.064;2023-05-10T05:08:07;14.41;68.57
68746;SHT31;66104;45.456;11.064;2023-05-10T05:10:44;14.38;68.96
68746;SHT31;66104;45.456;11.064;2023-05-10T05:13:23;14.37;69.48
68746;SHT31;66104;45.456;11.064;2023-05-10T05:16:02;14.37;69.40
68746;SHT31;66104;45.456;11.064;2023-05-10T05:18:41;14.36;68.67
68746;SHT31;66104;45.456;11.064;2023-05-10T05:21:19;14.35;68.64
68746;SHT31;66104;45.456;11.064;2023-05-10T05:23:56;14.32;68.72
68746;SHT31;66104;45.456;11.064;2023-05-10T05:26:34;14.29;68.88
68746;SHT31;66104;45.456;11.064;2023-05-10T05:29:12;14.30;68.96
68746;SHT31;66104;45.456;11.064;2023-05-10T05:31:50;14.27;68.47
68746;SHT31;66104;45.456;11.064;2023-05-10T05:34:27;14.23;68.92
68746;SHT31;66104;45.456;11.064;2023-05-10T05:37:05;14.24;68.43
68746;SHT31;66104;45.456;11.064;2023-05-10T05:39:47;14.19;68.72
68746;SHT31;66104;45.456;11.064;2023-05-10T05:42:23;14.15;69.26
68746;SHT31;66104;45.456;11.064;2023-05-10T05:45:02;14.12;69.66
68746;SHT31;66104;45.456;11.064;2023-05-10T05:47:44;14.10;69.49
68746;SHT31;66104;45.456;11.064;2023-05-10T05:50:21;14.04;69.60
68746;SHT31;66104;45.456;11.064;2023-05-10T05:52:59;14.07;69.58
68746;SHT31;66104;45.456;11.064;2023-05-10T05:55:37;14.08;69.71
68746;SHT31;66104;45.456;11.064;2023-05-10T05:58:25;14.06;68.93
68746;SHT31;66104;45.456;11.064;2023-05-10T06:01:03;14.07;68.97
68746;SHT31;66104;45.456;11.064;2023-05-10T06:03:40;14.04;69.09
68746;SHT31;66104;45.456;11.064;2023-05-10T06:06:21;14.05;69.08
68746;SHT31;66104;45.456;11.064;2023-05-10T06:08:59;14.08;68.78
68746;SHT31;66104;45.456;11.064;2023-05-10T06:11:37;14.07;69.18
68746;SHT31;66104;45.456;11.064;2023-05-10T06:14:15;14.07;69.21
68746;SHT31;66104;45.456;11.064;2023-05-10T06:16:55;14.08;69.60
68746;SHT31;66104;45.456;11.064;2023-05-10T06:19:34;14.12;69.32
68746;SHT31;66104;45.456;11.064;2023-05-10T06:22:11;14.17;68.97
68746;SHT31;66104;45.456;11.064;2023-05-10T06:24:48;14.18;69.12
68746;SHT31;66104;45.456;11.064;2023-05-10T06:27:26;14.22;69.19
68746;SHT31;66104;45.456;11.064;2023-05-10T06:30:05;14.29;69.41
68746;SHT31;66104;45.456;11.064;2023-05-10T06:32:46;14.28;68.91
68746;SHT31;66104;45.456;11.064;2023-05-10T06:35:26;14.26;69.01
68746;SHT31;66104;45.456;11.064;2023-05-10T06:38:04;14.21;69.00
68746;SHT31;66104;45.456;11.064;2023-05-10T06:40:42;14.19;69.34
68746;SHT31;66104;45.456;11.064;2023-05-10T06:43:19;14.19;69.54
68746;SHT31;66104;45.456;11.064;2023-05-10T06:45:58;14.14;69.60
68746;SHT31;66104;45.456;11.064;2023-05-10T06:48:35;14.04;70.27
68746;SHT31;66104;45.456;11.064;2023-05-10T06:51:13;13.98;70.88
68746;SHT31;66104;45.456;11.064;2023-05-10T06:53:51;13.93;70.42
68746;SHT31;66104;45.456;11.064;2023-05-10T06:56:29;13.86;71.07
68746;SHT31;66104;45.456;11.064;2023-05-10T06:59:06;13.80;71.21
68746;SHT31;66104;45.456;11.064;2023-05-10T07:01:45;13.81;71.56
68746;SHT31;66104;45.456;11.064;2023-05-10T07:04:23;13.87;72.08
68746;SHT31;66104;45.456;11.064;2023-05-10T07:07:01;13.91;71.80
68746;SHT31;66104;45.456;11.064;2023-05-10T07:09:39;13.87;72.25
68746;SHT31;66104;45.456;11.064;2023-05-10T07:12:17;13.86;72.24
68746;SHT31;66104;45.456;11.064;2023-05-10T07:14:54;13.90;72.40
68746;SHT31;66104;45.456;11.064;2023-05-10T07:17:32;13.94;72.53
68746;SHT31;66104;45.456;11.064;2023-05-10T07:20:14;13.99;72.73
68746;SHT31;66104;45.456;11.064;2023-05-10T07:22:53;14.03;72.89
68746;SHT31;66104;45.456;11.064;2023-05-10T07:25:31;13.99;72.58
68746;SHT31;66104;45.456;11.064;2023-05-10T07:28:09;13.92;72.86
68746;SHT31;66104;45.456;11.064;2023-05-10T07:30:47;13.85;72.88
68746;SHT31;66104;45.456;11.064;2023-05-10T07:33:25;13.80;73.02
68746;SHT31;66104;45.456;11.064;2023-05-10T07:36:03;13.76;73.35
68746;SHT31;66104;45.456;11.064;2023-05-10T07:38:41;13.71;73.46
68746;SHT31;66104;45.456;11.064;2023-05-10T07:41:18;13.66;73.74
68746;SHT31;66104;45.456;11.064;2023-05-10T07:43:55;13.64;73.81
68746;SHT31;66104;45.456;11.064;2023-05-10T07:46:32;13.60;74.02
68746;SHT31;66104;45.456;11.064;2023-05-10T07:49:09;13.60;74.34
68746;SHT31;66104;45.456;11.064;2023-05-10T07:51:46;13.60;74.34
68746;SHT31;66104;45.456;11.064;2023-05-10T07:54:24;13.61;74.58
68746;SHT31;66104;45.456;11.064;2023-05-10T07:57:01;13.60;74.68
68746;SHT31;66104;45.456;11.064;2023-05-10T07:59:38;13.63;74.91
68746;SHT31;66104;45.456;11.064;2023-05-10T08:02:17;13.64;74.64
68746;SHT31;66104;45.456;11.064;2023-05-10T08:04:54;13.60;74.85
68746;SHT31;66104;45.456;11.064;2023-05-10T08:07:31;13.54;74.94
68746;SHT31;66104;45.456;11.064;2023-05-10T08:10:10;13.51;74.92
68746;SHT31;66104;45.456;11.064;2023-05-10T08:12:48;13.54;75.02
68746;SHT31;66104;45.456;11.064;2023-05-10T08:15:27;13.59;74.56
68746;SHT31;66104;45.456;11.064;2023-05-10T08:18:04;13.61;74.48
68746;SHT31;66104;45.456;11.064;2023-05-10T08:20:41;13.65;74.78
68746;SHT31;66104;45.456;11.064;2023-05-10T08:23:19;13.69;75.05
68746;SHT31;66104;45.456;11.064;2023-05-10T08:25:57;13.78;75.25
68746;SHT31;66104;45.456;11.064;2023-05-10T08:28:53;13.84;74.86
68746;SHT31;66104;45.456;11.064;2023-05-10T08:31:30;13.89;74.64
68746;SHT31;66104;45.456;11.064;2023-05-10T08:34:08;13.94;74.72
68746;SHT31;66104;45.456;11.064;2023-05-10T08:36:46;14.01;75.28
68746;SHT31;66104;45.456;11.064;2023-05-10T08:39:22;14.07;74.96
68746;SHT31;66104;45.456;11.064;2023-05-10T08:42:01;14.15;75.16
68746;SHT31;66104;45.456;11.064;2023-05-10T08:44:40;14.20;75.19
68746;SHT31;66104;45.456;11.064;2023-05-10T08:47:20;14.27;74.97
68746;SHT31;66104;45.456;11.064;2023-05-10T08:49:58;14.34;74.74
68746;SHT31;66104;45.456;11.064;2023-05-10T08:52:39;14.38;73.53
68746;SHT31;66104;45.456;11.064;2023-05-10T08:55:19;14.44;74.14
68746;SHT31;66104;45.456;11.064;2023-05-10T08:58:14;14.47;74.78
68746;SHT31;66104;45.456;11.064;2023-05-10T09:00:51;14.45;73.32
68746;SHT31;66104;45.456;11.064;2023-05-10T09:03:29;14.44;72.60
68746;SHT31;66104;45.456;11.064;2023-05-10T09:06:07;14.45;72.15
68746;SHT31;66104;45.456;11.064;2023-05-10T09:08:45;14.42;71.92
68746;SHT31;66104;45.456;11.064;2023-05-10T09:11:23;14.38;71.50
68746;SHT31;66104;45.456;11.064;2023-05-10T09:14:00;14.35;71.55
68746;SHT31;66104;45.456;11.064;2023-05-10T09:16:38;14.29;70.94
68746;SHT31;66104;45.456;11.064;2023-05-10T09:19:14;14.28;71.55
68746;SHT31;66104;45.456;11.064;2023-05-10T09:21:52;14.30;71.00
68746;SHT31;66104;45.456;11.064;2023-05-10T09:24:31;14.31;71.09
68746;SHT31;66104;45.456;11.064;2023-05-10T09:27:11;14.32;71.19
68746;SHT31;66104;45.456;11.064;2023-05-10T09:29:48;14.35;71.06
68746;SHT31;66104;45.456;11.064;2023-05-10T09:32:29;14.37;71.28
68746;SHT31;66104;45.456;11.064;2023-05-10T09:35:15;14.38;71.24
68746;SHT31;66104;45.456;11.064;2023-05-10T09:37:59;14.45;71.26
68746;SHT31;66104;45.456;11.064;2023-05-10T09:40:36;14.45;71.19
68746;SHT31;66104;45.456;11.064;2023-05-10T09:43:23;14.40;71.13
68746;SHT31;66104;45.456;11.064;2023-05-10T09:46:00;14.37;70.34
68746;SHT31;66104;45.456;11.064;2023-05-10T09:48:45;14.38;70.67
68746;SHT31;66104;45.456;11.064;2023-05-10T09:51:22;14.39;70.34
68746;SHT31;66104;45.456;11.064;2023-05-10T09:54:10;14.36;70.48
68746;SHT31;66104;45.456;11.064;2023-05-10T09:56:47;14.36;71.93
68746;SHT31;66104;45.456;11.064;2023-05-10T09:59:26;14.38;73.21
68746;SHT31;66104;45.456;11.064;2023-05-10T10:02:04;14.48;73.56
68746;SHT31;66104;45.456;11.064;2023-05-10T10:04:41;14.57;73.86
68746;SHT31;66104;45.456;11.064;2023-05-10T10:07:23;14.65;74.27
68746;SHT31;66104;45.456;11.064;2023-05-10T10:10:01;14.72;73.36
68746;SHT31;66104;45.456;11.064;2023-05-10T10:12:42;14.76;72.35
68746;SHT31;66104;45.456;11.064;2023-05-10T10:15:20;14.76;72.05
68746;SHT31;66104;45.456;11.064;2023-05-10T10:17:58;14.82;72.34
68746;SHT31;66104;45.456;11.064;2023-05-10T10:20:36;14.90;72.50
68746;SHT31;66104;45.456;11.064;2023-05-10T10:23:13;14.98;73.01
68746;SHT31;66104;45.456;11.064;2023-05-10T10:25:51;15.05;73.45
68746;SHT31;66104;45.456;11.064;2023-05-10T10:28:34;15.10;72.30
68746;SHT31;66104;45.456;11.064;2023-05-10T10:31:23;15.13;71.59
68746;SHT31;66104;45.456;11.064;2023-05-10T10:34:16;15.17;71.57
68746;SHT31;66104;45.456;11.064;2023-05-10T10:37:03;15.23;71.90
68746;SHT31;66104;45.456;11.064;2023-05-10T10:39:40;15.27;72.52
68746;SHT31;66104;45.456;11.064;2023-05-10T10:45:21;15.29;69.90
68746;SHT31;66104;45.456;11.064;2023-05-10T10:50:58;15.25;70.07
68746;SHT31;66104;45.456;11.064;2023-05-10T10:53:35;15.24;70.00
68746;SHT31;66104;45.456;11.064;2023-05-10T10:56:15;15.21;69.82
68746;SHT31;66104;45.456;11.064;2023-05-10T10:58:58;15.14;70.35
68746;SHT31;66104;45.456;11.064;2023-05-10T11:01:37;15.07;69.76
68746;SHT31;66104;45.456;11.064;2023-05-10T11:04:22;14.93;69.94
68746;SHT31;66104;45.456;11.064;2023-05-10T11:07:18;14.79;70.60
68746;SHT31;66104;45.456;11.064;2023-05-10T11:09:54;14.73;70.92
68746;SHT31;66104;45.456;11.064;2023-05-10T11:12:51;14.71;71.09
68746;SHT31;66104;45.456;11.064;2023-05-10T11:15:33;14.69;71.09
68746;SHT31;66104;45.456;11.064;2023-05-10T11:18:21;14.64;71.81
68746;SHT31;66104;45.456;11.064;2023-05-10T11:21:02;14.56;71.58
68746;SHT31;66104;45.456;11.064;2023-05-10T11:23:52;14.48;71.50
68746;SHT31;66104;45.456;11.064;2023-05-10T11:26:32;14.45;72.74
68746;SHT31;66104;45.456;11.064;2023-05-10T11:29:09;14.41;72.66
68746;SHT31;66104;45.456;11.064;2023-05-10T11:31:47;14.36;72.74
68746;SHT31;66104;45.456;11.064;2023-05-10T11:34:25;14.33;73.15
68746;SHT31;66104;45.456;11.064;2023-05-10T11:37:03;14.31;73.39
68746;SHT31;66104;45.456;11.064;2023-05-10T11:39:45;14.31;72.85
68746;SHT31;66104;45.456;11.064;2023-05-10T11:42:22;14.33;73.43
68746;SHT31;66104;45.456;11.064;2023-05-10T11:44:58;14.37;73.92
68746;SHT31;66104;45.456;11.064;2023-05-10T11:47:39;14.43;74.46
68746;SHT31;66104;45.456;11.064;2023-05-10T11:50:20;14.49;74.67
68746;SHT31;66104;45.456;11.064;2023-05-10T11:52:57;14.58;74.64
68746;SHT31;66104;45.456;11.064;2023-05-10T11:55:35;14.63;74.50
68746;SHT31;66104;45.456;11.064;2023-05-10T11:58:14;14.68;74.07
68746;SHT31;66104;45.456;11.064;2023-05-10T12:00:59;14.75;74.51
68746;SHT31;66104;45.456;11.064;2023-05-10T12:03:39;14.78;74.59
68746;SHT31;66104;45.456;11.064;2023-05-10T12:06:17;14.83;74.68
68746;SHT31;66104;45.456;11.064;2023-05-10T12:08:54;14.89;74.92
68746;SHT31;66104;45.456;11.064;2023-05-10T12:11:39;14.97;75.30
68746;SHT31;66104;45.456;11.064;2023-05-10T12:14:17;15.01;74.43
68746;SHT31;66104;45.456;11.064;2023-05-10T12:16:55;15.05;74.58
68746;SHT31;66104;45.456;11.064;2023-05-10T12:19:38;15.10;74.85
68746;SHT31;66104;45.456;11.064;2023-05-10T12:22:14;15.15;75.10
68746;SHT31;66104;45.456;11.064;2023-05-10T12:24:53;15.18;75.26
68746;SHT31;66104;45.456;11.064;2023-05-10T12:27:33;15.21;75.59
68746;SHT31;66104;45.456;11.064;2023-05-10T12:30:12;15.24;76.16
68746;SHT31;66104;45.456;11.064;2023-05-10T12:32:59;15.28;76.55
68746;SHT31;66104;45.456;11.064;2023-05-10T12:35:46;15.30;76.85
68746;SHT31;66104;45.456;11.064;2023-05-10T12:38:29;15.33;77.08
68746;SHT31;66104;45.456;11.064;2023-05-10T12:41:10;15.34;77.42
68746;SHT31;66104;45.456;11.064;2023-05-10T12:43:48;15.34;77.53
68746;SHT31;66104;45.456;11.064;2023-05-10T12:46:25;15.34;77.61
68746;SHT31;66104;45.456;11.064;2023-05-10T12:49:02;15.33;77.95
68746;SHT31;66104;45.456;11.064;2023-05-10T12:51:39;15.35;77.66
68746;SHT31;66104;45.456;11.064;2023-05-10T12:54:17;15.38;77.06
68746;SHT31;66104;45.456;11.064;2023-05-10T12:56:54;15.42;77.07
68746;SHT31;66104;45.456;11.064;2023-05-10T12:59:31;15.45;76.43
68746;SHT31;66104;45.456;11.064;2023-05-10T13:02:09;15.47;76.01
68746;SHT31;66104;45.456;11.064;2023-05-10T13:04:47;15.49;76.11
68746;SHT31;66104;45.456;11.064;2023-05-10T13:07:23;15.51;76.30
68746;SHT31;66104;45.456;11.064;2023-05-10T13:10:01;15.55;76.25
68746;SHT31;66104;45.456;11.064;2023-05-10T13:12:40;15.56;76.29
68746;SHT31;66104;45.456;11.064;2023-05-10T13:15:16;15.59;76.29
68746;SHT31;66104;45.456;11.064;2023-05-10T13:17:53;15.60;76.42
68746;SHT31;66104;45.456;11.064;2023-05-10T13:20:29;15.62;76.45
68746;SHT31;66104;45.456;11.064;2023-05-10T13:23:07;15.64;76.50
68746;SHT31;66104;45.456;11.064;2023-05-10T13:25:44;15.65;76.73
68746;SHT31;66104;45.456;11.064;2023-05-10T13:28:21;15.67;76.94
68746;SHT31;66104;45.456;11.064;2023-05-10T13:30:58;15.68;76.07
68746;SHT31;66104;45.456;11.064;2023-05-10T13:33:35;15.68;75.63
68746;SHT31;66104;45.456;11.064;2023-05-10T13:36:12;15.62;74.59
68746;SHT31;66104;45.456;11.064;2023-05-10T13:38:50;15.60;75.43
68746;SHT31;66104;45.456;11.064;2023-05-10T13:41:28;15.62;75.86
68746;SHT31;66104;45.456;11.064;2023-05-10T13:44:05;15.64;76.18
68746;SHT31;66104;45.456;11.064;2023-05-10T13:46:49;15.66;76.70
68746;SHT31;66104;45.456;11.064;2023-05-10T13:49:27;15.69;76.90
68746;SHT31;66104;45.456;11.064;2023-05-10T13:52:05;15.69;76.25
68746;SHT31;66104;45.456;11.064;2023-05-10T13:54:41;15.71;76.34
68746;SHT31;66104;45.456;11.064;2023-05-10T13:57:18;15.75;76.59
68746;SHT31;66104;45.456;11.064;2023-05-10T13:59:55;15.76;76.85
68746;SHT31;66104;45.456;11.064;2023-05-10T14:02:35;15.79;76.84
68746;SHT31;66104;45.456;11.064;2023-05-10T14:05:12;15.82;76.69
68746;SHT31;66104;45.456;11.064;2023-05-10T14:07:54;15.84;76.90
68746;SHT31;66104;45.456;11.064;2023-05-10T14:10:33;15.85;77.08
68746;SHT31;66104;45.456;11.064;2023-05-10T14:13:10;15.88;77.12
68746;SHT31;66104;45.456;11.064;2023-05-10T14:15:47;15.88;77.22
68746;SHT31;66104;45.456;11.064;2023-05-10T14:18:23;15.88;77.28
68746;SHT31;66104;45.456;11.064;2023-05-10T14:21:01;15.90;77.53
68746;SHT31;66104;45.456;11.064;2023-05-10T14:23:39;15.93;77.38
68746;SHT31;66104;45.456;11.064;2023-05-10T14:26:16;15.94;77.28
68746;SHT31;66104;45.456;11.064;2023-05-10T14:28:55;15.95;77.56
68746;SHT31;66104;45.456;11.064;2023-05-10T14:31:32;15.95;76.95
68746;SHT31;66104;45.456;11.064;2023-05-10T14:34:36;15.89;74.24
68746;SHT31;66104;45.456;11.064;2023-05-10T14:37:14;15.88;74.49
68746;SHT31;66104;45.456;11.064;2023-05-10T14:39:51;15.89;74.51
68746;SHT31;66104;45.456;11.064;2023-05-10T14:42:33;15.88;73.57
68746;SHT31;66104;45.456;11.064;2023-05-10T14:45:11;15.81;72.60
68746;SHT31;66104;45.456;11.064;2023-05-10T14:47:49;15.70;72.22
68746;SHT31;66104;45.456;11.064;2023-05-10T14:50:25;15.61;72.46
68746;SHT31;66104;45.456;11.064;2023-05-10T14:53:05;15.56;73.57
68746;SHT31;66104;45.456;11.064;2023-05-10T14:55:42;15.52;73.93
68746;SHT31;66104;45.456;11.064;2023-05-10T14:58:20;15.46;72.97
68746;SHT31;66104;45.456;11.064;2023-05-10T15:00:56;15.40;73.30
68746;SHT31;66104;45.456;11.064;2023-05-10T15:03:33;15.41;73.61
68746;SHT31;66104;45.456;11.064;2023-05-10T15:06:10;15.42;73.66
68746;SHT31;66104;45.456;11.064;2023-05-10T15:08:47;15.47;73.53
68746;SHT31;66104;45.456;11.064;2023-05-10T15:11:24;15.50;73.42
68746;SHT31;66104;45.456;11.064;2023-05-10T15:14:00;15.52;73.33
68746;SHT31;66104;45.456;11.064;2023-05-10T15:16:37;15.55;72.96
68746;SHT31;66104;45.456;11.064;2023-05-10T15:19:14;15.58;73.68
68746;SHT31;66104;45.456;11.064;2023-05-10T15:21:52;15.60;74.51
68746;SHT31;66104;45.456;11.064;2023-05-10T15:24:29;15.63;75.04
68746;SHT31;66104;45.456;11.064;2023-05-10T15:27:07;15.66;75.46
68746;SHT31;66104;45.456;11.064;2023-05-10T15:29:45;15.68;75.28
68746;SHT31;66104;45.456;11.064;2023-05-10T15:32:23;15.72;75.70
68746;SHT31;66104;45.456;11.064;2023-05-10T15:35:02;15.74;76.09
68746;SHT31;66104;45.456;11.064;2023-05-10T15:37:41;15.75;76.26
68746;SHT31;66104;45.456;11.064;2023-05-10T15:40:19;15.77;76.17
68746;SHT31;66104;45.456;11.064;2023-05-10T15:42:55;15.79;76.35
68746;SHT31;66104;45.456;11.064;2023-05-10T15:45:32;15.81;76.56
68746;SHT31;66104;45.456;11.064;2023-05-10T15:48:10;15.81;76.79
68746;SHT31;66104;45.456;11.064;2023-05-10T15:50:48;15.82;76.73
68746;SHT31;66104;45.456;11.064;2023-05-10T15:53:28;15.82;76.89
68746;SHT31;66104;45.456;11.064;2023-05-10T15:56:08;15.78;77.17
68746;SHT31;66104;45.456;11.064;2023-05-10T15:58:45;15.75;77.21
68746;SHT31;66104;45.456;11.064;2023-05-10T16:01:22;15.74;77.27
68746;SHT31;66104;45.456;11.064;2023-05-10T16:04:00;15.72;77.49
68746;SHT31;66104;45.456;11.064;2023-05-10T16:06:37;15.71;77.49
68746;SHT31;66104;45.456;11.064;2023-05-10T16:09:14;15.72;77.66
68746;SHT31;66104;45.456;11.064;2023-05-10T16:11:51;15.70;77.64
68746;SHT31;66104;45.456;11.064;2023-05-10T16:14:29;15.70;77.80
68746;SHT31;66104;45.456;11.064;2023-05-10T16:17:07;15.69;77.65
68746;SHT31;66104;45.456;11.064;2023-05-10T16:19:44;15.68;77.67
68746;SHT31;66104;45.456;11.064;2023-05-10T16:22:22;15.66;77.82
68746;SHT31;66104;45.456;11.064;2023-05-10T16:24:58;15.66;78.01
68746;SHT31;66104;45.456;11.064;2023-05-10T16:27:36;15.65;77.94
68746;SHT31;66104;45.456;11.064;2023-05-10T16:30:14;15.64;77.94
68746;SHT31;66104;45.456;11.064;2023-05-10T16:32:52;15.63;78.12
68746;SHT31;66104;45.456;11.064;2023-05-10T16:35:31;15.64;78.18
68746;SHT31;66104;45.456;11.064;2023-05-10T16:38:08;15.64;78.22